createdAt,value
2023-05-14T00:01:36.528Z,100612.77
2023-05-14T00:04:04.753Z,100610.05
2023-05-14T00:06:32.841Z,100611.31
2023-05-14T00:09:00.596Z,100607.23
2023-05-14T00:11:28.592Z,100607.31
2023-05-14T00:13:56.538Z,100606.70
2023-05-14T00:16:24.289Z,100604.46
2023-05-14T00:18:52.090Z,100602.52
2023-05-14T00:21:20.664Z,100600.24
2023-05-14T00:23:48.517Z,100599.64
2023-05-14T00:26:16.387Z,100603.09
2023-05-14T00:28:45.386Z,100603.52
2023-05-14T00:31:14.242Z,100601.63
2023-05-14T00:33:42.198Z,100595.78
2023-05-14T00:36:10.074Z,100590.97
2023-05-14T00:38:37.937Z,100593.73
2023-05-14T00:41:05.977Z,100593.61
2023-05-14T00:43:33.928Z,100594.12
2023-05-14T00:46:02.212Z,100594.33
2023-05-14T00:48:30.892Z,100587.13
2023-05-14T00:50:59.368Z,100586.48
2023-05-14T00:53:28.030Z,100585.04
2023-05-14T00:55:56.097Z,100584.69
2023-05-14T00:58:25.014Z,100581.70
2023-05-14T01:00:52.982Z,100583.71
2023-05-14T01:03:21.070Z,100581.14
2023-05-14T01:05:52.483Z,100578.22
2023-05-14T01:08:31.957Z,100576.60
2023-05-14T01:11:24.992Z,100572.31
2023-05-14T01:13:58.830Z,100577.23
2023-05-14T01:16:29.074Z,100575.53
2023-05-14T01:18:58.915Z,100576.30
2023-05-14T01:21:37.889Z,100572.48
2023-05-14T01:24:06.478Z,100569.11
2023-05-14T01:26:36.379Z,100572.91
2023-05-14T01:29:21.627Z,100580.05
2023-05-14T01:31:51.464Z,100575.52
2023-05-14T01:34:22.718Z,100569.25
2023-05-14T01:36:52.232Z,100565.66
2023-05-14T01:39:20.589Z,100562.45
2023-05-14T01:41:49.058Z,100562.14
2023-05-14T01:44:17.563Z,100560.07
2023-05-14T01:46:45.382Z,100561.33
2023-05-14T01:49:14.031Z,100560.52
2023-05-14T01:51:41.917Z,100557.05
2023-05-14T01:54:09.721Z,100561.39
2023-05-14T01:56:37.959Z,100564.27
2023-05-14T01:59:05.882Z,100564.34
2023-05-14T02:01:34.115Z,100565.77
2023-05-14T02:04:02.320Z,100563.90
2023-05-14T02:06:30.195Z,100565.98
2023-05-14T02:08:58.265Z,100560.45
2023-05-14T02:11:26.295Z,100558.81
2023-05-14T02:13:54.198Z,100555.64
2023-05-14T02:16:22.243Z,100555.02
2023-05-14T02:18:52.936Z,100552.58
2023-05-14T02:21:20.863Z,100551.63
2023-05-14T02:23:49.692Z,100549.69
2023-05-14T02:26:17.703Z,100549.56
2023-05-14T02:28:46.158Z,100551.56
2023-05-14T02:31:14.664Z,100552.06
2023-05-14T02:33:43.189Z,100552.49
2023-05-14T02:36:11.148Z,100551.59
2023-05-14T02:38:39.224Z,100546.86
2023-05-14T02:41:07.138Z,100546.46
2023-05-14T02:43:34.941Z,100543.77
2023-05-14T02:46:03.004Z,100542.16
2023-05-14T02:48:30.965Z,100540.98
2023-05-14T02:50:58.904Z,100540.17
2023-05-14T02:53:26.796Z,100541.27
2023-05-14T02:55:54.774Z,100540.08
2023-05-14T02:58:25.072Z,100539.51
2023-05-14T03:00:56.297Z,100538.73
2023-05-14T03:03:24.932Z,100530.96
2023-05-14T03:05:53.898Z,100526.61
2023-05-14T03:08:21.713Z,100529.87
2023-05-14T03:10:49.740Z,100533.83
2023-05-14T03:13:20.037Z,100535.99
2023-05-14T03:15:48.681Z,100536.66
2023-05-14T03:18:16.949Z,100534.61
2023-05-14T03:20:45.372Z,100530.77
2023-05-14T03:23:14.925Z,100527.38
2023-05-14T03:25:42.841Z,100526.63
2023-05-14T03:28:10.748Z,100522.12
2023-05-14T03:30:38.656Z,100522.27
2023-05-14T03:33:07.084Z,100524.77
2023-05-14T03:35:35.098Z,100527.27
2023-05-14T03:38:03.006Z,100522.58
2023-05-14T03:40:30.886Z,100520.48
2023-05-14T03:42:58.860Z,100520.92
2023-05-14T03:45:28.704Z,100522.61
2023-05-14T03:47:56.958Z,100520.13
2023-05-14T03:50:25.801Z,100522.50
2023-05-14T03:52:55.251Z,100521.77
2023-05-14T03:55:24.059Z,100524.03
2023-05-14T03:57:51.901Z,100521.23
2023-05-14T04:00:20.025Z,100520.46
2023-05-14T04:02:48.071Z,100522.32
2023-05-14T04:05:16.745Z,100518.39
2023-05-14T04:07:45.930Z,100518.62
2023-05-14T04:10:14.210Z,100518.20
2023-05-14T04:12:42.137Z,100515.63
2023-05-14T04:15:11.148Z,100515.17
2023-05-14T04:17:39.037Z,100513.29
2023-05-14T04:20:08.027Z,100514.66
2023-05-14T04:22:36.287Z,100518.74
2023-05-14T04:25:04.676Z,100519.61
2023-05-14T04:27:33.573Z,100519.97
2023-05-14T04:30:01.321Z,100520.41
2023-05-14T04:32:30.325Z,100521.77
2023-05-14T04:34:58.822Z,100524.39
2023-05-14T04:37:26.992Z,100522.90
2023-05-14T04:39:54.985Z,100522.07
2023-05-14T04:42:22.967Z,100515.89
2023-05-14T04:44:51.992Z,100509.06
2023-05-14T04:47:21.298Z,100504.14
2023-05-14T04:49:49.130Z,100497.67
2023-05-14T04:52:16.880Z,100495.66
2023-05-14T04:54:44.846Z,100488.98
2023-05-14T04:57:12.767Z,100483.65
2023-05-14T04:59:40.804Z,100481.09
2023-05-14T05:02:10.602Z,100478.91
2023-05-14T05:04:39.106Z,100473.73
2023-05-14T05:07:07.019Z,100473.06
2023-05-14T05:09:34.983Z,100469.00
2023-05-14T05:12:02.994Z,100463.61
2023-05-14T05:14:37.267Z,100466.20
2023-05-14T05:17:06.383Z,100462.02
2023-05-14T05:19:43.682Z,100457.65
2023-05-14T05:22:20.051Z,100457.48
2023-05-14T05:24:49.761Z,100461.81
2023-05-14T05:27:18.079Z,100461.91
2023-05-14T05:29:46.315Z,100459.74
2023-05-14T05:32:14.232Z,100458.34
2023-05-14T05:34:42.298Z,100455.40
2023-05-14T05:37:13.172Z,100451.55
2023-05-14T05:39:42.519Z,100447.64
2023-05-14T05:42:10.480Z,100445.64
2023-05-14T05:44:38.295Z,100445.17
2023-05-14T05:47:12.070Z,100443.38
2023-05-14T05:49:40.148Z,100444.92
2023-05-14T05:52:08.069Z,100451.75
2023-05-14T05:54:36.040Z,100447.78
2023-05-14T05:57:04.224Z,100443.45
2023-05-14T05:59:32.080Z,100441.45
2023-05-14T06:02:00.192Z,100441.44
2023-05-14T06:04:28.244Z,100442.17
2023-05-14T06:06:56.132Z,100443.91
2023-05-14T06:09:24.001Z,100445.84
2023-05-14T06:11:51.941Z,100445.70
2023-05-14T06:14:19.730Z,100439.87
2023-05-14T06:16:47.748Z,100439.23
2023-05-14T06:19:16.005Z,100439.08
2023-05-14T06:21:44.436Z,100435.21
2023-05-14T06:24:13.423Z,100436.88
2023-05-14T06:26:41.308Z,100433.15
2023-05-14T06:29:09.186Z,100427.49
2023-05-14T06:31:37.815Z,100423.67
2023-05-14T06:34:05.778Z,100424.95
2023-05-14T06:36:33.775Z,100421.95
2023-05-14T06:39:01.673Z,100417.51
2023-05-14T06:41:29.734Z,100414.47
2023-05-14T06:43:57.698Z,100414.89
2023-05-14T06:46:25.675Z,100411.38
2023-05-14T06:48:53.611Z,100407.05
2023-05-14T06:51:21.800Z,100403.02
2023-05-14T06:53:49.667Z,100399.83
2023-05-14T06:56:17.699Z,100391.45
2023-05-14T06:58:45.745Z,100390.05
2023-05-14T07:01:13.841Z,100392.72
2023-05-14T07:03:41.655Z,100393.92
2023-05-14T07:06:10.855Z,100393.63
2023-05-14T07:08:40.859Z,100395.14
2023-05-14T07:11:08.744Z,100393.73
2023-05-14T07:13:36.650Z,100388.48
2023-05-14T07:16:04.829Z,100380.89
2023-05-14T07:18:32.867Z,100375.17
2023-05-14T07:21:00.875Z,100376.33
2023-05-14T07:23:28.609Z,100374.64
2023-05-14T07:25:56.578Z,100374.30
2023-05-14T07:28:24.426Z,100374.21
2023-05-14T07:30:52.278Z,100376.14
2023-05-14T07:33:20.188Z,100372.34
2023-05-14T07:35:48.141Z,100376.23
2023-05-14T07:38:16.936Z,100374.27
2023-05-14T07:40:45.113Z,100368.84
2023-05-14T07:43:13.280Z,100363.42
2023-05-14T07:45:41.313Z,100362.71
2023-05-14T07:48:09.546Z,100360.17
2023-05-14T07:50:38.321Z,100361.58
2023-05-14T07:53:06.365Z,100360.74
2023-05-14T07:55:34.337Z,100361.91
2023-05-14T07:58:02.133Z,100361.31
2023-05-14T08:00:29.968Z,100359.38
2023-05-14T08:02:58.097Z,100353.23
2023-05-14T08:05:26.770Z,100349.83
2023-05-14T08:07:54.682Z,100351.84
2023-05-14T08:10:22.974Z,100350.91
2023-05-14T08:12:51.266Z,100342.19
2023-05-14T08:15:19.213Z,100339.98
2023-05-14T08:17:47.155Z,100337.32
2023-05-14T08:20:15.203Z,100337.08
2023-05-14T08:22:43.086Z,100340.02
2023-05-14T08:25:11.712Z,100338.98
2023-05-14T08:27:39.977Z,100337.73
2023-05-14T08:30:08.221Z,100336.52
2023-05-14T08:32:38.366Z,100334.13
2023-05-14T08:35:07.038Z,100331.55
2023-05-14T08:37:34.957Z,100328.02
2023-05-14T08:40:03.171Z,100321.84
2023-05-14T08:42:31.794Z,100321.47
2023-05-14T08:45:05.829Z,100320.45
2023-05-14T08:47:34.457Z,100317.63
2023-05-14T08:50:04.905Z,100314.19
2023-05-14T08:52:34.376Z,100310.63
2023-05-14T08:55:06.451Z,100305.55
2023-05-14T08:57:35.434Z,100308.51
2023-05-14T09:00:18.208Z,100306.52
2023-05-14T09:02:49.326Z,100302.65
2023-05-14T09:05:18.971Z,100303.15
2023-05-14T09:07:46.874Z,100300.27
2023-05-14T09:10:16.438Z,100295.89
2023-05-14T09:12:44.392Z,100292.34
2023-05-14T09:15:13.268Z,100292.34
2023-05-14T09:17:41.448Z,100288.14
2023-05-14T09:20:12.575Z,100283.42
2023-05-14T09:22:41.084Z,100282.17
2023-05-14T09:25:12.110Z,100280.16
2023-05-14T09:27:40.131Z,100278.86
2023-05-14T09:30:12.914Z,100276.81
2023-05-14T09:32:50.637Z,100278.77
2023-05-14T09:35:20.881Z,100277.71
2023-05-14T09:37:53.758Z,100273.38
2023-05-14T09:40:24.167Z,100272.43
2023-05-14T09:42:52.702Z,100272.50
2023-05-14T09:45:20.561Z,100270.17
2023-05-14T09:47:48.434Z,100273.48
2023-05-14T09:50:16.328Z,100272.80
2023-05-14T09:52:44.333Z,100272.73
2023-05-14T09:55:12.187Z,100269.86
2023-05-14T09:57:40.768Z,100270.23
2023-05-14T10:00:09.431Z,100267.10
2023-05-14T10:02:38.677Z,100266.41
2023-05-14T10:05:07.970Z,100263.15
2023-05-14T10:07:48.640Z,100261.64
2023-05-14T10:10:19.876Z,100258.61
2023-05-14T10:13:13.462Z,100258.10
2023-05-14T10:15:52.119Z,100257.89
2023-05-14T10:18:24.333Z,100257.30
2023-05-14T10:21:02.768Z,100256.13
2023-05-14T10:23:31.117Z,100253.92
2023-05-14T10:25:59.979Z,100253.71
2023-05-14T10:28:28.618Z,100251.77
2023-05-14T10:30:56.773Z,100249.08
2023-05-14T10:33:24.774Z,100243.59
2023-05-14T10:35:55.935Z,100243.46
2023-05-14T10:38:27.718Z,100244.14
2023-05-14T10:41:02.704Z,100247.30
2023-05-14T10:43:36.465Z,100243.04
2023-05-14T10:46:05.257Z,100243.11
2023-05-14T10:48:34.099Z,100242.41
2023-05-14T10:51:03.240Z,100243.85
2023-05-14T10:53:39.875Z,100251.21
2023-05-14T10:56:14.504Z,100251.19
2023-05-14T10:58:44.470Z,100247.68
2023-05-14T11:01:13.934Z,100246.45
2023-05-14T11:03:47.175Z,100237.42
2023-05-14T11:06:16.395Z,100234.45
2023-05-14T11:08:46.265Z,100234.73
2023-05-14T11:11:14.861Z,100236.17
2023-05-14T11:13:42.884Z,100236.23
2023-05-14T11:16:22.740Z,100233.23
2023-05-14T11:19:04.439Z,100230.56
2023-05-14T11:21:35.136Z,100231.01
2023-05-14T11:24:05.098Z,100233.95
2023-05-14T11:26:34.513Z,100232.48
2023-05-14T11:29:02.701Z,100228.93
2023-05-14T11:31:30.882Z,100229.58
2023-05-14T11:33:58.980Z,100233.92
2023-05-14T11:36:28.252Z,100235.65
2023-05-14T11:38:56.161Z,100236.02
2023-05-14T11:41:24.481Z,100232.30
2023-05-14T11:43:52.382Z,100227.77
2023-05-14T11:46:20.615Z,100225.49
2023-05-14T11:48:48.641Z,100224.71
2023-05-14T11:51:16.891Z,100226.40
2023-05-14T11:53:46.054Z,100227.23
2023-05-14T11:56:14.048Z,100225.16
2023-05-14T11:58:48.240Z,100226.35
2023-05-14T12:01:16.296Z,100222.09
2023-05-14T12:03:44.532Z,100215.95
2023-05-14T12:06:12.752Z,100212.02
2023-05-14T12:08:40.777Z,100206.29
2023-05-14T12:11:09.465Z,100203.52
2023-05-14T12:13:37.442Z,100202.20
2023-05-14T12:16:05.538Z,100195.70
2023-05-14T12:18:33.963Z,100196.18
2023-05-14T12:21:03.963Z,100200.42
2023-05-14T12:23:32.622Z,100203.23
2023-05-14T12:26:06.635Z,100203.36
2023-05-14T12:28:38.402Z,100201.31
2023-05-14T12:31:06.754Z,100195.20
2023-05-14T12:33:35.002Z,100190.89
2023-05-14T12:36:13.960Z,100186.65
2023-05-14T12:39:00.692Z,100185.67
2023-05-14T12:41:28.679Z,100187.58
2023-05-14T12:43:57.356Z,100189.63
2023-05-14T12:46:27.424Z,100187.09
2023-05-14T12:48:56.234Z,100181.33
2023-05-14T12:51:24.158Z,100169.64
2023-05-14T12:53:54.151Z,100161.29
2023-05-14T12:56:27.719Z,100158.95
2023-05-14T12:58:56.482Z,100158.04
2023-05-14T13:01:24.986Z,100154.85
2023-05-14T13:03:52.989Z,100149.92
2023-05-14T13:06:20.906Z,100144.75
2023-05-14T13:08:48.887Z,100138.13
2023-05-14T13:11:16.808Z,100133.89
2023-05-14T13:13:44.763Z,100128.02
2023-05-14T13:16:16.998Z,100116.65
2023-05-14T13:18:45.302Z,100107.00
2023-05-14T13:21:13.285Z,100102.59
2023-05-14T13:23:41.119Z,100096.83
2023-05-14T13:26:09.805Z,100083.63
2023-05-14T13:28:37.850Z,100079.77
2023-05-14T13:31:14.436Z,100075.21
2023-05-14T13:33:45.279Z,100073.54
2023-05-14T13:36:15.009Z,100070.52
2023-05-14T13:38:43.139Z,100060.57
2023-05-14T13:41:10.907Z,100061.68
2023-05-14T13:43:39.027Z,100060.83
2023-05-14T13:46:07.096Z,100055.56
2023-05-14T13:48:37.139Z,100054.95
2023-05-14T13:51:05.017Z,100060.45
2023-05-14T13:53:32.900Z,100058.14
2023-05-14T13:56:01.909Z,100055.48
2023-05-14T13:58:30.315Z,100055.77
2023-05-14T14:00:58.179Z,100053.06
2023-05-14T14:03:26.114Z,100053.20
2023-05-14T14:05:54.153Z,100049.13
2023-05-14T14:08:24.103Z,100051.33
2023-05-14T14:10:54.668Z,100049.77
2023-05-14T14:13:23.030Z,100047.47
2023-05-14T14:15:51.512Z,100047.35
2023-05-14T14:18:19.766Z,100052.14
2023-05-14T14:20:47.981Z,100058.76
2023-05-14T14:23:16.562Z,100058.16
2023-05-14T14:25:44.496Z,100059.49
2023-05-14T14:28:12.419Z,100061.66
2023-05-14T14:30:40.453Z,100056.94
2023-05-14T14:33:08.366Z,100050.37
2023-05-14T14:35:37.466Z,100051.06
2023-05-14T14:38:05.798Z,100049.32
2023-05-14T14:40:34.564Z,100041.27
2023-05-14T14:43:02.435Z,100036.05
2023-05-14T14:45:30.500Z,100035.36
2023-05-14T14:48:37.486Z,100032.39
2023-05-14T14:51:09.439Z,100013.52
2023-05-14T14:53:37.349Z,100007.80
2023-05-14T14:56:05.986Z,100010.36
2023-05-14T14:58:34.062Z,100010.86
2023-05-14T15:01:02.027Z,100020.09
2023-05-14T15:03:30.058Z,100025.72
2023-05-14T15:05:58.304Z,100025.29
2023-05-14T15:08:27.896Z,100015.30
2023-05-14T15:10:56.560Z,100002.52
2023-05-14T15:13:25.144Z,99994.20
2023-05-14T15:15:53.132Z,99994.23
2023-05-14T15:18:21.161Z,99992.45
2023-05-14T15:20:49.454Z,99986.13
2023-05-14T15:23:17.288Z,99987.80
2023-05-14T15:25:45.420Z,99988.53
2023-05-14T15:28:13.323Z,99983.64
2023-05-14T15:30:41.415Z,99984.17
2023-05-14T15:33:09.572Z,99982.70
2023-05-14T15:35:37.672Z,99985.64
2023-05-14T15:38:07.141Z,99983.84
2023-05-14T15:40:35.356Z,99974.94
2023-05-14T15:43:03.705Z,99968.56
2023-05-14T15:45:31.952Z,99963.54
2023-05-14T15:47:59.892Z,99964.92
2023-05-14T15:50:28.117Z,99971.70
2023-05-14T15:52:56.270Z,99978.54
2023-05-14T15:55:24.139Z,99983.50
2023-05-14T15:57:52.103Z,99984.59
2023-05-14T16:00:20.379Z,99989.29
2023-05-14T16:02:48.279Z,99999.48
2023-05-14T16:05:16.395Z,99999.56
2023-05-14T16:07:44.330Z,99992.95
2023-05-14T16:10:12.373Z,99983.83
2023-05-14T16:12:40.375Z,99975.52
2023-05-14T16:15:08.763Z,99965.08
2023-05-14T16:17:36.792Z,99965.09
2023-05-14T16:20:05.441Z,99966.19
2023-05-14T16:22:34.873Z,99970.94
2023-05-14T16:25:04.743Z,99971.27
2023-05-14T16:27:32.985Z,99966.11
2023-05-14T16:30:00.936Z,99953.50
2023-05-14T16:32:29.107Z,99946.92
2023-05-14T16:34:57.104Z,99943.17
2023-05-14T16:37:29.418Z,99929.39
2023-05-14T16:39:57.393Z,99913.67
2023-05-14T16:42:26.358Z,99898.47
2023-05-14T16:44:54.316Z,99899.00
2023-05-14T16:47:22.363Z,99904.62
2023-05-14T16:49:50.525Z,99910.13
2023-05-14T16:52:18.689Z,99909.34
2023-05-14T16:54:46.724Z,99911.81
2023-05-14T16:57:14.676Z,99913.13
2023-05-14T16:59:42.702Z,99908.73
2023-05-14T17:02:13.566Z,99907.42
2023-05-14T17:04:43.470Z,99909.56
2023-05-14T17:07:11.817Z,99910.54
2023-05-14T17:09:39.728Z,99913.27
2023-05-14T17:12:07.931Z,99912.54
2023-05-14T17:14:35.951Z,99915.72
2023-05-14T17:17:03.998Z,99917.73
2023-05-14T17:19:31.949Z,99923.23
2023-05-14T17:21:59.974Z,99924.42
2023-05-14T17:24:27.887Z,99923.71
2023-05-14T17:26:57.295Z,99917.77
2023-05-14T17:29:25.215Z,99911.59
2023-05-14T17:31:53.341Z,99904.51
2023-05-14T17:34:21.393Z,99900.48
2023-05-14T17:36:49.611Z,99896.66
2023-05-14T17:39:17.427Z,99892.88
2023-05-14T17:41:45.375Z,99887.98
2023-05-14T17:44:13.379Z,99884.76
2023-05-14T17:46:42.449Z,99886.14
2023-05-14T17:49:11.851Z,99887.12
2023-05-14T17:51:39.743Z,99887.24
2023-05-14T17:54:07.678Z,99884.69
2023-05-14T17:56:35.618Z,99884.77
2023-05-14T17:59:03.762Z,99886.96
2023-05-14T18:01:31.872Z,99895.83
2023-05-14T18:03:59.923Z,99898.70
2023-05-14T18:06:27.789Z,99894.27
2023-05-14T18:08:55.785Z,99889.46
2023-05-14T18:11:23.745Z,99893.83
2023-05-14T18:13:51.779Z,99893.76
2023-05-14T18:16:19.607Z,99894.53
2023-05-14T18:18:47.906Z,99892.09
2023-05-14T18:21:16.052Z,99888.40
2023-05-14T18:23:43.960Z,99887.23
2023-05-14T18:26:11.846Z,99888.36
2023-05-14T18:28:39.995Z,99896.48
2023-05-14T18:31:08.017Z,99901.80
2023-05-14T18:33:36.146Z,99902.05
2023-05-14T18:36:04.350Z,99894.09
2023-05-14T18:38:32.978Z,99885.65
2023-05-14T18:41:05.388Z,99881.52
2023-05-14T18:43:33.190Z,99881.13
2023-05-14T18:46:01.106Z,99884.41
2023-05-14T18:48:30.558Z,99886.54
2023-05-14T18:50:58.785Z,99878.85
2023-05-14T18:53:30.135Z,99876.27
2023-05-14T18:56:00.193Z,99869.34
2023-05-14T18:58:29.329Z,99862.16
2023-05-14T19:01:06.470Z,99858.92
2023-05-14T19:03:34.987Z,99858.90
2023-05-14T19:06:03.232Z,99859.02
2023-05-14T19:08:31.230Z,99864.12
2023-05-14T19:10:59.205Z,99867.31
2023-05-14T19:13:28.709Z,99870.73
2023-05-14T19:15:56.787Z,99868.60
2023-05-14T19:18:25.249Z,99864.23
2023-05-14T19:20:54.931Z,99858.77
2023-05-14T19:23:25.362Z,99854.06
2023-05-14T19:25:54.680Z,99854.06
2023-05-14T19:28:26.989Z,99849.73
2023-05-14T19:30:54.793Z,99844.02
2023-05-14T19:33:22.756Z,99843.84
2023-05-14T19:35:51.091Z,99848.84
2023-05-14T19:38:44.199Z,99845.62
2023-05-14T19:41:12.667Z,99843.05
2023-05-14T19:43:40.654Z,99840.74
2023-05-14T19:46:08.623Z,99835.61
2023-05-14T19:48:36.684Z,99831.93
2023-05-14T19:51:04.567Z,99834.45
2023-05-14T19:53:32.656Z,99833.85
2023-05-14T19:56:02.091Z,99832.50
2023-05-14T19:58:30.027Z,99832.73
2023-05-14T20:00:58.664Z,99831.72
2023-05-14T20:03:26.882Z,99826.63
2023-05-14T20:05:55.833Z,99823.65
2023-05-14T20:08:24.877Z,99821.60
2023-05-14T20:10:52.826Z,99822.48
2023-05-14T20:13:21.867Z,99818.49
2023-05-14T20:15:51.361Z,99811.71
2023-05-14T20:18:19.291Z,99805.52
2023-05-14T20:20:49.095Z,99806.45
2023-05-14T20:23:17.059Z,99804.92
2023-05-14T20:25:44.883Z,99799.89
2023-05-14T20:28:12.787Z,99790.46
2023-05-14T20:30:41.182Z,99783.87
2023-05-14T20:33:09.253Z,99779.10
2023-05-14T20:35:37.497Z,99774.45
2023-05-14T20:38:05.468Z,99770.59
2023-05-14T20:40:33.312Z,99775.11
2023-05-14T20:43:01.893Z,99773.89
2023-05-14T20:45:30.346Z,99772.92
2023-05-14T20:47:58.466Z,99770.21
2023-05-14T20:50:28.018Z,99765.38
2023-05-14T20:52:55.900Z,99757.95
2023-05-14T20:55:24.274Z,99750.75
2023-05-14T20:57:52.301Z,99743.27
2023-05-14T21:00:20.732Z,99740.22
2023-05-14T21:02:52.536Z,99735.69
2023-05-14T21:05:20.957Z,99735.36
2023-05-14T21:07:48.854Z,99732.97
2023-05-14T21:10:19.177Z,99730.52
2023-05-14T21:12:47.119Z,99730.13
2023-05-14T21:15:15.322Z,99733.88
2023-05-14T21:17:43.188Z,99733.93
2023-05-14T21:20:15.537Z,99733.59
2023-05-14T21:22:43.449Z,99731.05
2023-05-14T21:25:11.418Z,99724.77
2023-05-14T21:27:39.542Z,99722.70
2023-05-14T21:30:09.941Z,99719.17
2023-05-14T21:32:37.994Z,99715.66
2023-05-14T21:35:06.263Z,99712.74
2023-05-14T21:37:34.297Z,99712.45
2023-05-14T21:40:02.129Z,99713.32
2023-05-14T21:42:30.103Z,99716.92
2023-05-14T21:44:57.958Z,99708.21
2023-05-14T21:47:27.018Z,99703.71
2023-05-14T21:49:55.222Z,99696.19
2023-05-14T21:52:22.979Z,99688.33
2023-05-14T21:54:50.768Z,99685.30
2023-05-14T21:57:18.762Z,99686.16
2023-05-14T21:59:46.601Z,99687.59
2023-05-14T22:02:14.675Z,99688.30
2023-05-14T22:04:42.569Z,99687.38
2023-05-14T22:07:10.961Z,99685.31
2023-05-14T22:09:38.789Z,99684.56
2023-05-14T22:12:07.265Z,99686.57
2023-05-14T22:14:35.057Z,99686.19
2023-05-14T22:17:03.041Z,99685.69
2023-05-14T22:19:31.429Z,99684.96
2023-05-14T22:21:59.311Z,99681.88
2023-05-14T22:24:27.292Z,99678.39
2023-05-14T22:26:55.170Z,99673.33
2023-05-14T22:29:23.082Z,99670.41
2023-05-14T22:31:51.104Z,99664.48
2023-05-14T22:34:19.452Z,99667.15
2023-05-14T22:36:47.494Z,99666.14
2023-05-14T22:39:15.587Z,99662.84
2023-05-14T22:41:43.619Z,99661.95
2023-05-14T22:44:11.432Z,99663.52
2023-05-14T22:46:39.431Z,99662.65
2023-05-14T22:49:07.287Z,99659.73
2023-05-14T22:51:35.226Z,99652.77
2023-05-14T22:54:03.225Z,99655.10
2023-05-14T22:56:31.530Z,99654.16
2023-05-14T22:59:02.261Z,99650.77
2023-05-14T23:01:32.293Z,99648.77
2023-05-14T23:04:00.240Z,99642.05
2023-05-14T23:06:28.192Z,99637.10
2023-05-14T23:08:56.282Z,99634.30
2023-05-14T23:11:26.656Z,99633.38
2023-05-14T23:13:54.553Z,99628.23
2023-05-14T23:16:22.376Z,99626.85
2023-05-14T23:18:50.700Z,99624.38
2023-05-14T23:21:18.982Z,99624.38
2023-05-14T23:23:47.120Z,99627.41
2023-05-14T23:26:15.159Z,99625.25
2023-05-14T23:28:42.995Z,99620.52
2023-05-14T23:31:10.924Z,99615.43
2023-05-14T23:33:39.871Z,99611.39
2023-05-14T23:36:08.366Z,99608.38
2023-05-14T23:38:36.668Z,99608.27
2023-05-14T23:41:04.728Z,99604.87
2023-05-14T23:43:33.882Z,99604.48
2023-05-14T23:46:01.904Z,99604.20
2023-05-14T23:48:29.819Z,99599.84
2023-05-14T23:50:57.892Z,99593.83
2023-05-14T23:53:25.888Z,99592.20
2023-05-14T23:55:53.760Z,99594.67
2023-05-14T23:58:21.796Z,99591.31
